Time;durP1;ratioP1;P1;durP2;ratioP2;P2;SDS_P1;SDS_P2;PMS_P1;PMS_P2;Temp;Humidity;BMP_temperature;BMP_pressure;BME280_temperature;BME280_humidity;BME280_pressure;Samples;Min_cycle;Max_cycle;Signal;HPM_P1;HPM_P2
2023/05/09 00:01:58;;;;;;;2.00;1.30;;;;;;;;;;5015319;28;20045;-57
2023/05/09 00:05:23;;;;;;;1.70;1.30;;;;;;;;;;4983501;28;20072;-60
2023/05/09 00:08:47;;;;;;;1.70;1.35;;;;;;;;;;4981403;28;20034;-57
2023/05/09 00:12:11;;;;;;;2.20;1.45;;;;;;;;;;5006120;28;20030;-63
2023/05/09 00:15:31;;;;;;;1.90;1.33;;;;;;;;;;4985491;28;20030;-61
2023/05/09 00:18:56;;;;;;;2.20;1.60;;;;;;;;;;5037047;28;20370;-63
2023/05/09 00:22:20;;;;;;;1.60;1.30;;;;;;;;;;4997360;28;20152;-61
2023/05/09 00:25:32;;;;;;;2.03;1.55;;;;;;;;;;5012034;28;20021;-62
2023/05/09 00:28:55;;;;;;;2.97;1.50;;;;;;;;;;5042605;28;20504;-59
2023/05/09 00:32:15;;;;;;;1.60;1.33;;;;;;;;;;5012921;28;20021;-62
2023/05/09 00:35:39;;;;;;;2.40;1.63;;;;;;;;;;5024598;28;20160;-62
2023/05/09 00:39:08;;;;;;;2.03;1.50;;;;;;;;;;4991772;28;20450;-56
2023/05/09 00:42:32;;;;;;;2.55;1.42;;;;;;;;;;4992168;28;20123;-61
2023/05/09 00:46:00;;;;;;;1.80;1.35;;;;;;;;;;5014470;28;20034;-61
2023/05/09 00:49:23;;;;;;;2.97;1.98;;;;;;;;;;4963814;28;20037;-61
2023/05/09 00:52:33;;;;;;;2.15;1.48;;;;;;;;;;5020471;28;20029;-63
2023/05/09 00:55:54;;;;;;;1.88;1.48;;;;;;;;;;5007297;28;20034;-64
2023/05/09 00:59:15;;;;;;;1.75;1.40;;;;;;;;;;5021464;28;20370;-62
2023/05/09 01:02:38;;;;;;;2.55;1.40;;;;;;;;;;5002522;28;20040;-62
2023/05/09 01:06:06;;;;;;;1.70;1.33;;;;;;;;;;5012805;28;20110;-55
2023/05/09 01:09:24;;;;;;;2.75;1.50;;;;;;;;;;4973772;28;20105;-63
2023/05/09 01:12:43;;;;;;;1.58;1.40;;;;;;;;;;5016708;28;20024;-57
2023/05/09 01:16:14;;;;;;;2.10;1.40;;;;;;;;;;4994454;28;20545;-64
2023/05/09 01:19:25;;;;;;;2.05;1.40;;;;;;;;;;5016870;28;20403;-62
2023/05/09 01:22:15;;;;;;;;;;;;;;;;;;5013017;28;20136;-63
2023/05/09 01:25:55;;;;;;;1.80;1.42;;;;;;;;;;5013674;28;19974;-57
2023/05/09 01:29:08;;;;;;;1.90;1.42;;;;;;;;;;4971843;28;20570;-61
2023/05/09 01:32:34;;;;;;;2.03;1.58;;;;;;;;;;5009383;28;20029;-61
2023/05/09 01:35:53;;;;;;;2.10;1.55;;;;;;;;;;5027088;28;20136;-59
2023/05/09 01:39:09;;;;;;;2.13;1.40;;;;;;;;;;4989987;28;20052;-61
2023/05/09 01:42:39;;;;;;;1.33;1.10;;;;;;;;;;4997977;28;20037;-57
2023/05/09 01:46:00;;;;;;;1.88;1.40;;;;;;;;;;5025693;28;20005;-62
2023/05/09 01:49:26;;;;;;;2.17;1.38;;;;;;;;;;5001288;28;20538;-60
2023/05/09 01:52:38;;;;;;;1.58;1.23;;;;;;;;;;4974858;28;20433;-56
2023/05/09 01:55:48;;;;;;;1.60;1.27;;;;;;;;;;5030086;28;20013;-58
2023/05/09 01:59:14;;;;;;;1.52;1.20;;;;;;;;;;5002820;28;20206;-63
2023/05/09 02:02:34;;;;;;;1.70;1.35;;;;;;;;;;4996163;28;20043;-61
2023/05/09 02:05:59;;;;;;;1.35;1.20;;;;;;;;;;5010528;28;20060;-64
2023/05/09 02:09:25;;;;;;;1.63;1.25;;;;;;;;;;5006537;28;20021;-62
2023/05/09 02:12:41;;;;;;;2.30;1.40;;;;;;;;;;5026088;28;20075;-61
2023/05/09 02:16:02;;;;;;;1.92;1.23;;;;;;;;;;4961133;28;20045;-63
2023/05/09 02:19:20;;;;;;;3.03;1.40;;;;;;;;;;5032842;28;20032;-64
2023/05/09 02:22:37;;;;;;;2.17;1.45;;;;;;;;;;4953842;28;20529;-57
2023/05/09 02:29:19;;;;;;;1.38;1.10;;;;;;;;;;4975216;28;20548;-61
2023/05/09 02:32:40;;;;;;;1.48;1.23;;;;;;;;;;5004181;28;20045;-62
2023/05/09 02:36:07;;;;;;;1.70;1.20;;;;;;;;;;5024210;28;20125;-63
2023/05/09 02:39:35;;;;;;;2.03;1.33;;;;;;;;;;5001205;28;20041;-60
2023/05/09 02:42:47;;;;;;;1.48;1.30;;;;;;;;;;5005667;28;20040;-62
2023/05/09 02:46:01;;;;;;;2.17;1.30;;;;;;;;;;5033059;28;20281;-62
2023/05/09 02:49:19;;;;;;;1.40;1.05;;;;;;;;;;4986290;28;20034;-61
2023/05/09 02:52:37;;;;;;;1.95;1.50;;;;;;;;;;4997720;28;20473;-62
2023/05/09 02:55:46;;;;;;;1.80;1.20;;;;;;;;;;5034757;28;20053;-63
2023/05/09 02:59:16;;;;;;;1.25;1.10;;;;;;;;;;4990210;28;20197;-63
2023/05/09 03:02:37;;;;;;;1.98;1.30;;;;;;;;;;5013130;28;20037;-61
2023/05/09 03:05:37;;;;;;;1.70;1.20;;;;;;;;;;5020035;28;20025;-60
2023/05/09 03:08:53;;;;;;;1.30;1.20;;;;;;;;;;5028146;28;20103;-61
2023/05/09 03:12:24;;;;;;;1.52;1.30;;;;;;;;;;5006114;28;20044;-62
2023/05/09 03:15:50;;;;;;;1.58;1.40;;;;;;;;;;5018186;28;20379;-62
2023/05/09 03:19:12;;;;;;;1.52;1.30;;;;;;;;;;4986280;28;20040;-56
2023/05/09 03:22:37;;;;;;;1.58;1.40;;;;;;;;;;5021050;28;20859;-60
2023/05/09 03:25:53;;;;;;;2.10;1.23;;;;;;;;;;5009677;28;20459;-57
2023/05/09 03:29:14;;;;;;;1.60;1.20;;;;;;;;;;5008639;28;20040;-57
2023/05/09 03:32:39;;;;;;;1.80;1.20;;;;;;;;;;5030946;28;20031;-62
2023/05/09 03:35:55;;;;;;;1.50;1.20;;;;;;;;;;4961371;28;20050;-63
2023/05/09 03:39:17;;;;;;;1.98;1.30;;;;;;;;;;5024556;28;20029;-61
2023/05/09 03:42:41;;;;;;;1.77;1.40;;;;;;;;;;4997343;28;20152;-56
2023/05/09 03:45:30;;;;;;;;;;;;;;;;;;5005668;28;20520;-57
2023/05/09 03:48:56;;;;;;;1.80;1.08;;;;;;;;;;5025825;28;19917;-60
2023/05/09 03:52:16;;;;;;;1.83;1.15;;;;;;;;;;5001534;28;20025;-61
2023/05/09 03:55:35;;;;;;;1.48;1.20;;;;;;;;;;4973230;28;20050;-64
2023/05/09 03:59:03;;;;;;;1.65;1.23;;;;;;;;;;5003773;28;20036;-63
2023/05/09 04:05:37;;;;;;;2.25;1.20;;;;;;;;;;5003494;28;20548;-57
2023/05/09 04:09:02;;;;;;;2.30;1.10;;;;;;;;;;4992522;28;20080;-61
2023/05/09 04:12:26;;;;;;;1.33;1.08;;;;;;;;;;4991167;28;20049;-61
2023/05/09 04:15:55;;;;;;;1.15;1.05;;;;;;;;;;5021059;28;20017;-60
2023/05/09 04:19:12;;;;;;;1.60;1.15;;;;;;;;;;5000499;28;20054;-57
2023/05/09 04:22:40;;;;;;;1.60;1.13;;;;;;;;;;4992239;28;20069;-59
2023/05/09 04:25:50;;;;;;;1.60;1.02;;;;;;;;;;5024907;28;20397;-60
2023/05/09 04:28:38;;;;;;;2.53;1.20;;;;;;;;;;4979316;28;20129;-58
2023/05/09 04:31:30;;;;;;;1.77;1.25;;;;;;;;;;4991032;28;20170;-59
2023/05/09 04:34:20;;;;;;;2.58;1.15;;;;;;;;;;4994111;28;20046;-60
2023/05/09 04:40:25;;;;;;;1.60;1.30;;;;;;;;;;4984821;28;20502;-62
2023/05/09 04:43:21;;;;;;;1.90;1.40;;;;;;;;;;4989123;28;20052;-61
2023/05/09 04:46:29;;;;;;;1.70;1.20;;;;;;;;;;4968333;28;20174;-56
2023/05/09 04:49:24;;;;;;;2.03;1.20;;;;;;;;;;4967386;28;20427;-56
2023/05/09 04:52:24;;;;;;;2.38;1.35;;;;;;;;;;4968234;28;20527;-63
2023/05/09 04:55:31;;;;;;;1.85;1.30;;;;;;;;;;4979970;28;20041;-64
2023/05/09 04:58:37;;;;;;;3.75;1.17;;;;;;;;;;4985227;28;20046;-63
2023/05/09 05:01:33;;;;;;;2.38;1.30;;;;;;;;;;4997036;28;20137;-58
2023/05/09 05:04:36;;;;;;;1.75;1.23;;;;;;;;;;4948824;28;20050;-62
2023/05/09 05:07:28;;;;;;;1.90;1.60;;;;;;;;;;4985191;28;20075;-57
2023/05/09 05:10:25;;;;;;;1.95;1.25;;;;;;;;;;4984653;28;20057;-61
2023/05/09 05:13:21;;;;;;;3.45;1.63;;;;;;;;;;4976375;28;20506;-56
2023/05/09 05:16:21;;;;;;;2.30;1.27;;;;;;;;;;4989860;28;20301;-58
2023/05/09 05:19:21;;;;;;;2.22;1.50;;;;;;;;;;4978506;28;20038;-62
2023/05/09 05:22:00;;;;;;;;;;;;;;;;;;5002250;28;20493;-59
2023/05/09 05:24:59;;;;;;;3.17;1.50;;;;;;;;;;4966952;28;19961;-61
2023/05/09 05:27:53;;;;;;;1.27;1.17;;;;;;;;;;4978457;28;20042;-63
2023/05/09 05:30:55;;;;;;;3.20;1.35;;;;;;;;;;4960680;28;20038;-63
2023/05/09 05:33:42;;;;;;;2.35;1.45;;;;;;;;;;4968624;28;20065;-58
2023/05/09 05:36:34;;;;;;;2.63;1.50;;;;;;;;;;4980299;28;20058;-61
2023/05/09 05:39:22;;;;;;;1.70;1.33;;;;;;;;;;5004926;28;20089;-57
2023/05/09 05:42:13;;;;;;;1.60;1.40;;;;;;;;;;5015473;28;20037;-60
2023/05/09 05:45:09;;;;;;;1.92;1.50;;;;;;;;;;4966871;28;20556;-60
2023/05/09 05:48:01;;;;;;;1.90;1.42;;;;;;;;;;5016098;28;20482;-62
2023/05/09 05:51:05;;;;;;;3.45;1.40;;;;;;;;;;5016751;28;20048;-59
2023/05/09 05:54:06;;;;;;;1.92;1.35;;;;;;;;;;5001492;28;20034;-63
2023/05/09 05:56:49;;;;;;;;;;;;;;;;;;4951655;28;20240;-65
2023/05/09 05:59:38;;;;;;;2.47;1.38;;;;;;;;;;4990419;28;19914;-56
2023/05/09 06:02:29;;;;;;;2.13;1.25;;;;;;;;;;4990719;28;20041;-67
2023/05/09 06:05:25;;;;;;;2.05;1.30;;;;;;;;;;5015168;28;20725;-65
2023/05/09 06:08:13;;;;;;;2.00;1.20;;;;;;;;;;5009792;28;20068;-59
2023/05/09 06:11:01;;;;;;;1.92;1.20;;;;;;;;;;4997921;28;20029;-60
2023/05/09 06:13:50;;;;;;;1.88;1.30;;;;;;;;;;4985947;28;20050;-57
2023/05/09 06:16:55;;;;;;;1.90;1.45;;;;;;;;;;4983449;28;20076;-61
2023/05/09 06:19:57;;;;;;;1.70;1.20;;;;;;;;;;4996655;28;20130;-64
2023/05/09 06:22:49;;;;;;;2.20;1.50;;;;;;;;;;5012852;28;20045;-64
2023/05/09 06:25:42;;;;;;;1.80;1.33;;;;;;;;;;4977496;28;20073;-56
2023/05/09 06:28:34;;;;;;;1.38;1.08;;;;;;;;;;4964105;28;20046;-61
2023/05/09 06:31:25;;;;;;;1.92;1.55;;;;;;;;;;5000274;28;20461;-64
2023/05/09 06:34:14;;;;;;;2.72;1.40;;;;;;;;;;4994113;28;20059;-64
2023/05/09 06:37:04;;;;;;;1.67;1.08;;;;;;;;;;5009708;28;20053;-55
2023/05/09 06:39:56;;;;;;;1.80;1.20;;;;;;;;;;5015044;28;20065;-59
2023/05/09 06:42:49;;;;;;;1.30;1.00;;;;;;;;;;5014170;28;20473;-59
2023/05/09 06:45:46;;;;;;;1.40;1.10;;;;;;;;;;4980211;28;20140;-62
2023/05/09 06:48:44;;;;;;;1.92;1.02;;;;;;;;;;4995190;28;20082;-62
2023/05/09 06:51:36;;;;;;;1.85;1.38;;;;;;;;;;5015980;28;20456;-62
2023/05/09 06:54:31;;;;;;;2.10;1.10;;;;;;;;;;5002065;28;20078;-61
2023/05/09 06:57:22;;;;;;;1.75;1.10;;;;;;;;;;4962537;28;20050;-63
2023/05/09 07:00:12;;;;;;;1.33;1.00;;;;;;;;;;4985718;28;20207;-57
2023/05/09 07:03:02;;;;;;;2.03;1.20;;;;;;;;;;4997572;28;20041;-58
2023/05/09 07:05:58;;;;;;;2.08;1.20;;;;;;;;;;4999764;28;20091;-62
2023/05/09 07:08:53;;;;;;;1.98;1.15;;;;;;;;;;5002034;28;20044;-59
2023/05/09 07:11:46;;;;;;;1.40;1.10;;;;;;;;;;5017747;28;20034;-60
2023/05/09 07:14:49;;;;;;;1.30;1.02;;;;;;;;;;4953334;28;20211;-62
2023/05/09 07:17:40;;;;;;;1.50;1.00;;;;;;;;;;4977464;28;20243;-63
2023/05/09 07:20:34;;;;;;;1.58;1.10;;;;;;;;;;4975001;28;20582;-58
2023/05/09 07:23:25;;;;;;;1.25;1.10;;;;;;;;;;4993876;28;20057;-63
2023/05/09 07:26:23;;;;;;;1.10;0.90;;;;;;;;;;5016817;28;20132;-61
2023/05/09 07:29:14;;;;;;;1.55;1.10;;;;;;;;;;4959873;28;20073;-62
2023/05/09 07:32:08;;;;;;;2.08;1.00;;;;;;;;;;4983018;28;20038;-57
2023/05/09 07:35:02;;;;;;;1.60;0.88;;;;;;;;;;5018622;28;20495;-62
2023/05/09 07:37:54;;;;;;;1.67;1.15;;;;;;;;;;5002349;28;20581;-60
2023/05/09 07:40:47;;;;;;;1.50;0.98;;;;;;;;;;4989050;28;20116;-56
2023/05/09 07:43:44;;;;;;;1.60;1.00;;;;;;;;;;4994991;28;20340;-60
2023/05/09 07:46:40;;;;;;;2.88;1.10;;;;;;;;;;4990050;28;20049;-61
2023/05/09 07:49:30;;;;;;;2.00;1.13;;;;;;;;;;4989502;28;20053;-62
2023/05/09 07:52:24;;;;;;;1.40;1.08;;;;;;;;;;4990848;28;20183;-62
2023/05/09 07:55:18;;;;;;;1.63;1.00;;;;;;;;;;4982657;28;20038;-59
2023/05/09 07:58:10;;;;;;;1.20;0.93;;;;;;;;;;4965401;28;20144;-59
2023/05/09 08:01:09;;;;;;;2.55;0.95;;;;;;;;;;4977728;28;20041;-61
2023/05/09 08:03:57;;;;;;;1.85;1.00;;;;;;;;;;5000340;28;20044;-58
2023/05/09 08:06:45;;;;;;;1.40;0.90;;;;;;;;;;4998016;28;20037;-56
2023/05/09 08:09:36;;;;;;;1.50;1.10;;;;;;;;;;4998078;28;20045;-57
2023/05/09 08:12:27;;;;;;;2.47;0.93;;;;;;;;;;4949358;28;20423;-62
2023/05/09 08:15:20;;;;;;;2.30;1.27;;;;;;;;;;4966859;28;20092;-59
2023/05/09 08:18:12;;;;;;;2.03;0.90;;;;;;;;;;4980158;28;20042;-61
2023/05/09 08:21:05;;;;;;;1.50;1.05;;;;;;;;;;4981378;28;20041;-58
2023/05/09 08:24:00;;;;;;;2.60;1.10;;;;;;;;;;4979938;28;20050;-63
2023/05/09 08:27:01;;;;;;;2.78;1.02;;;;;;;;;;4959245;28;20084;-58
2023/05/09 08:30:01;;;;;;;1.52;0.90;;;;;;;;;;4981367;28;20041;-61
2023/05/09 08:32:56;;;;;;;1.58;1.08;;;;;;;;;;4987294;28;20022;-59
2023/05/09 08:35:47;;;;;;;1.67;0.93;;;;;;;;;;4995258;28;20132;-61
2023/05/09 08:38:39;;;;;;;2.38;1.10;;;;;;;;;;5002593;28;20052;-59
2023/05/09 08:41:29;;;;;;;1.55;1.00;;;;;;;;;;4984459;28;20531;-62
2023/05/09 08:44:22;;;;;;;1.58;0.85;;;;;;;;;;5018452;28;20525;-61
2023/05/09 08:47:16;;;;;;;1.58;0.90;;;;;;;;;;5001475;28;20644;-57
2023/05/09 08:50:10;;;;;;;1.98;1.13;;;;;;;;;;5006783;28;22200;-63
2023/05/09 08:53:03;;;;;;;1.30;0.90;;;;;;;;;;4983227;28;20448;-62
2023/05/09 08:55:57;;;;;;;0.95;0.70;;;;;;;;;;5000649;28;20327;-62
2023/05/09 08:58:51;;;;;;;1.35;0.80;;;;;;;;;;5002052;28;20057;-59
2023/05/09 09:01:40;;;;;;;1.67;0.90;;;;;;;;;;5003220;28;20469;-61
2023/05/09 09:04:30;;;;;;;1.92;1.02;;;;;;;;;;5008783;28;20041;-60
2023/05/09 09:07:25;;;;;;;1.02;0.70;;;;;;;;;;4983247;28;20034;-58
2023/05/09 09:10:16;;;;;;;1.83;1.00;;;;;;;;;;5005919;28;20045;-58
2023/05/09 09:13:11;;;;;;;1.30;0.90;;;;;;;;;;5010088;28;20037;-59
2023/05/09 09:16:02;;;;;;;1.13;0.70;;;;;;;;;;5007000;28;20065;-60
2023/05/09 09:18:54;;;;;;;4.30;0.80;;;;;;;;;;5019088;28;20033;-64
2023/05/09 09:21:43;;;;;;;2.05;1.00;;;;;;;;;;5013872;28;20127;-62
2023/05/09 09:24:36;;;;;;;1.52;0.98;;;;;;;;;;5016276;28;20497;-56
2023/05/09 09:27:29;;;;;;;3.20;0.80;;;;;;;;;;5003219;28;20033;-61
2023/05/09 09:30:26;;;;;;;2.35;1.10;;;;;;;;;;5005668;28;20049;-56
2023/05/09 09:33:19;;;;;;;3.03;0.90;;;;;;;;;;5016012;28;20049;-62
2023/05/09 09:36:11;;;;;;;1.08;0.65;;;;;;;;;;4999485;28;20061;-65
2023/05/09 09:39:08;;;;;;;1.40;0.80;;;;;;;;;;5018669;28;20044;-57
2023/05/09 09:41:57;;;;;;;1.13;0.57;;;;;;;;;;4973089;28;20056;-58
2023/05/09 09:44:51;;;;;;;1.13;0.70;;;;;;;;;;5014768;28;20041;-60
2023/05/09 09:47:44;;;;;;;1.70;0.90;;;;;;;;;;5002353;28;20051;-60
2023/05/09 09:53:35;;;;;;;2.28;0.70;;;;;;;;;;5016347;28;20494;-61
2023/05/09 09:56:27;;;;;;;1.30;0.70;;;;;;;;;;4965773;28;20048;-61
2023/05/09 09:59:41;;;;;;;1.83;0.80;;;;;;;;;;5015339;28;20048;-61
2023/05/09 10:02:37;;;;;;;1.40;0.70;;;;;;;;;;4939654;28;20045;-58
2023/05/09 10:05:33;;;;;;;2.78;0.73;;;;;;;;;;5018116;28;20049;-64
2023/05/09 10:08:32;;;;;;;1.02;0.73;;;;;;;;;;4989941;28;20034;-59
2023/05/09 10:11:25;;;;;;;2.75;0.85;;;;;;;;;;5000041;28;20049;-59
2023/05/09 10:14:17;;;;;;;1.67;0.88;;;;;;;;;;5015621;28;20100;-58
2023/05/09 10:17:05;;;;;;;1.67;0.90;;;;;;;;;;5015318;28;20127;-59
2023/05/09 10:19:56;;;;;;;1.70;0.70;;;;;;;;;;5014751;28;21538;-59
2023/05/09 10:22:49;;;;;;;1.58;0.70;;;;;;;;;;5016086;28;20067;-58
2023/05/09 10:25:46;;;;;;;1.17;0.70;;;;;;;;;;4977671;28;20053;-63
2023/05/09 10:28:41;;;;;;;2.10;0.80;;;;;;;;;;5017458;28;20037;-58
2023/05/09 10:31:39;;;;;;;1.15;0.80;;;;;;;;;;5019547;28;20152;-63
2023/05/09 10:34:31;;;;;;;1.00;0.70;;;;;;;;;;5017689;28;20045;-61
2023/05/09 10:37:26;;;;;;;1.10;0.73;;;;;;;;;;4981536;28;20119;-63
2023/05/09 10:40:16;;;;;;;1.90;0.85;;;;;;;;;;5019591;28;20122;-58
2023/05/09 10:43:11;;;;;;;1.70;0.90;;;;;;;;;;5020400;28;20259;-63
2023/05/09 10:46:01;;;;;;;1.42;0.75;;;;;;;;;;5009339;28;20037;-60
2023/05/09 10:48:55;;;;;;;1.63;0.85;;;;;;;;;;5019072;28;20032;-63
2023/05/09 10:51:52;;;;;;;1.10;0.73;;;;;;;;;;5002158;28;20045;-62
2023/05/09 10:54:52;;;;;;;2.13;0.95;;;;;;;;;;5000129;28;21365;-61
2023/05/09 10:57:41;;;;;;;2.08;1.10;;;;;;;;;;5012126;28;20037;-55
2023/05/09 11:00:36;;;;;;;1.30;1.00;;;;;;;;;;5019248;28;20640;-61
2023/05/09 11:03:26;;;;;;;1.70;1.00;;;;;;;;;;5019211;28;20029;-62
2023/05/09 11:06:16;;;;;;;1.13;0.90;;;;;;;;;;4999376;28;20589;-60
2023/05/09 11:09:27;;;;;;;1.75;1.00;;;;;;;;;;5006211;28;20114;-61
2023/05/09 11:12:24;;;;;;;1.25;0.82;;;;;;;;;;5020082;28;20047;-59
2023/05/09 11:15:25;;;;;;;1.90;0.90;;;;;;;;;;5018767;28;20041;-62
2023/05/09 11:18:24;;;;;;;1.40;0.80;;;;;;;;;;5020842;28;20099;-60
2023/05/09 11:21:19;;;;;;;1.48;0.80;;;;;;;;;;5000861;28;20045;-62
2023/05/09 11:24:10;;;;;;;1.20;0.90;;;;;;;;;;5008632;28;20069;-58
2023/05/09 11:26:58;;;;;;;1.23;0.90;;;;;;;;;;5021142;28;20493;-61
2023/05/09 11:29:57;;;;;;;2.53;0.90;;;;;;;;;;5020274;28;20037;-58
2023/05/09 11:33:01;;;;;;;1.73;1.05;;;;;;;;;;5018032;28;20049;-58
2023/05/09 11:35:56;;;;;;;1.17;0.98;;;;;;;;;;4985859;28;20346;-58
2023/05/09 11:39:02;;;;;;;1.65;1.08;;;;;;;;;;5017082;28;20075;-59
2023/05/09 11:41:56;;;;;;;1.60;1.00;;;;;;;;;;5015062;28;20134;-61
2023/05/09 11:44:48;;;;;;;1.60;1.10;;;;;;;;;;5017207;28;20029;-63
2023/05/09 11:47:41;;;;;;;1.48;1.13;;;;;;;;;;4990662;28;20081;-57
2023/05/09 11:54:06;;;;;;;2.22;1.40;;;;;;;;;;4992931;28;20214;-62
2023/05/09 11:57:21;;;;;;;2.40;1.50;;;;;;;;;;5034539;28;20112;-61
2023/05/09 12:00:55;;;;;;;2.33;1.10;;;;;;;;;;4971563;28;20144;-58
2023/05/09 12:04:12;;;;;;;2.25;1.20;;;;;;;;;;4986412;28;20037;-62
2023/05/09 12:07:25;;;;;;;1.80;1.10;;;;;;;;;;5012323;28;20549;-62
2023/05/09 12:10:51;;;;;;;1.83;1.27;;;;;;;;;;4989689;28;20042;-61
2023/05/09 12:14:20;;;;;;;1.65;1.20;;;;;;;;;;4975185;28;20230;-61
2023/05/09 12:17:50;;;;;;;2.10;1.38;;;;;;;;;;4958406;28;20354;-64
2023/05/09 12:21:06;;;;;;;1.70;1.20;;;;;;;;;;5024467;28;20052;-58
2023/05/09 12:24:37;;;;;;;1.30;1.00;;;;;;;;;;4937864;28;20045;-61
2023/05/09 12:28:02;;;;;;;2.00;1.80;;;;;;;;;;4971693;28;20444;-63
2023/05/09 12:31:28;;;;;;;2.92;1.63;;;;;;;;;;5021889;28;20021;-56
2023/05/09 12:38:25;;;;;;;2.35;2.08;;;;;;;;;;4977308;28;20183;-62
2023/05/09 12:42:00;;;;;;;3.17;1.92;;;;;;;;;;4967363;28;20385;-61
2023/05/09 12:44:50;;;;;;;;;;;;;;;;;;4997094;28;20053;-56
2023/05/09 12:48:23;;;;;;;2.53;1.70;;;;;;;;;;4963039;28;19909;-58
2023/05/09 12:51:48;;;;;;;3.90;2.20;;;;;;;;;;4959784;28;20041;-56
2023/05/09 12:55:21;;;;;;;2.78;1.83;;;;;;;;;;5012275;28;20022;-57
2023/05/09 12:58:42;;;;;;;2.55;1.73;;;;;;;;;;4962590;28;20042;-58
2023/05/09 13:02:02;;;;;;;2.72;2.03;;;;;;;;;;4961937;28;20461;-61
2023/05/09 13:05:29;;;;;;;2.97;2.10;;;;;;;;;;4994061;28;20487;-58
2023/05/09 13:08:49;;;;;;;2.72;2.10;;;;;;;;;;4909984;28;20416;-62
2023/05/09 13:12:19;;;;;;;3.28;1.90;;;;;;;;;;4988913;28;20883;-64
2023/05/09 13:15:41;;;;;;;2.63;2.00;;;;;;;;;;4986577;28;20033;-63
2023/05/09 13:19:00;;;;;;;2.92;1.80;;;;;;;;;;4957574;28;20069;-58
2023/05/09 13:23:05;;;;;;;5.13;1.90;;;;;;;;;;4936819;28;20046;-63
2023/05/09 13:26:32;;;;;;;2.40;1.73;;;;;;;;;;4967471;28;20034;-63
2023/05/09 13:33:18;;;;;;;2.58;1.88;;;;;;;;;;4956957;28;20096;-62
2023/05/09 13:36:41;;;;;;;2.63;1.90;;;;;;;;;;4967891;28;20127;-58
2023/05/09 13:40:17;;;;;;;2.95;2.10;;;;;;;;;;4918819;28;20054;-61
2023/05/09 13:47:00;;;;;;;2.45;1.75;;;;;;;;;;4944229;28;20068;-56
2023/05/09 13:53:37;;;;;;;2.92;1.90;;;;;;;;;;4972314;28;20471;-63
2023/05/09 14:00:12;;;;;;;3.03;1.70;;;;;;;;;;4955762;28;20053;-57
2023/05/09 14:03:45;;;;;;;3.15;2.30;;;;;;;;;;4959373;28;20121;-58
2023/05/09 14:10:43;;;;;;;3.53;1.88;;;;;;;;;;4993301;28;20038;-63
2023/05/09 14:14:04;;;;;;;3.72;1.77;;;;;;;;;;4946912;28;20050;-62
2023/05/09 14:17:38;;;;;;;2.00;1.67;;;;;;;;;;4958262;28;20129;-62
2023/05/09 14:21:04;;;;;;;4.28;1.73;;;;;;;;;;5007161;28;20088;-63
2023/05/09 14:24:33;;;;;;;3.85;2.15;;;;;;;;;;4952257;28;20214;-63
2023/05/09 14:27:58;;;;;;;3.25;1.90;;;;;;;;;;4966157;28;20043;-63
2023/05/09 14:31:28;;;;;;;4.25;1.88;;;;;;;;;;4966397;28;20053;-64
2023/05/09 14:34:49;;;;;;;2.88;1.80;;;;;;;;;;4946334;28;20095;-63
2023/05/09 14:38:23;;;;;;;3.72;2.22;;;;;;;;;;4974608;28;20065;-63
2023/05/09 14:41:48;;;;;;;2.58;1.80;;;;;;;;;;4924221;28;20121;-58
2023/05/09 14:48:32;;;;;;;2.35;1.60;;;;;;;;;;4939081;28;20039;-61
2023/05/09 14:52:02;;;;;;;2.13;1.65;;;;;;;;;;4926764;28;20120;-58
2023/05/09 14:55:27;;;;;;;2.25;1.30;;;;;;;;;;4942100;28;20038;-62
2023/05/09 14:58:29;;;;;;;2.25;1.60;;;;;;;;;;4998915;28;20038;-64
2023/05/09 15:01:35;;;;;;;2.33;1.67;;;;;;;;;;4965848;28;20340;-57
2023/05/09 15:04:58;;;;;;;2.80;1.43;;;;;;;;;;4971999;28;20038;-62
2023/05/09 15:08:17;;;;;;;2.45;1.60;;;;;;;;;;5007277;28;20029;-59
2023/05/09 15:15:01;;;;;;;1.88;1.50;;;;;;;;;;4952813;28;20129;-59
2023/05/09 15:18:32;;;;;;;2.00;1.20;;;;;;;;;;4969876;28;20075;-62
2023/05/09 15:22:07;;;;;;;2.05;1.10;;;;;;;;;;4953725;28;20125;-58
2023/05/09 15:25:37;;;;;;;2.00;1.38;;;;;;;;;;4989271;28;20393;-61
2023/05/09 15:29:02;;;;;;;1.92;1.27;;;;;;;;;;4948299;28;20035;-61
2023/05/09 15:32:35;;;;;;;2.13;1.23;;;;;;;;;;4994798;28;20023;-60
2023/05/09 15:39:26;;;;;;;2.13;1.40;;;;;;;;;;4969226;28;20050;-62
2023/05/09 15:42:51;;;;;;;2.05;1.40;;;;;;;;;;4975081;28;20038;-61
2023/05/09 15:46:23;;;;;;;2.88;1.70;;;;;;;;;;4951110;28;20038;-60
2023/05/09 15:49:33;;;;;;;3.00;1.77;;;;;;;;;;4988344;28;20415;-62
2023/05/09 15:52:34;;;;;;;2.50;1.30;;;;;;;;;;4980249;28;20143;-62
2023/05/09 15:55:52;;;;;;;4.10;1.40;;;;;;;;;;4996196;28;20532;-62
2023/05/09 15:59:12;;;;;;;2.80;1.00;;;;;;;;;;4990973;28;20438;-58
2023/05/09 16:02:19;;;;;;;2.60;1.30;;;;;;;;;;5015987;28;20041;-61
2023/05/09 16:05:31;;;;;;;3.15;1.20;;;;;;;;;;5021843;28;20037;-61
2023/05/09 16:08:29;;;;;;;2.40;1.40;;;;;;;;;;5017971;28;20083;-59
2023/05/09 16:11:09;;;;;;;;;;;;;;;;;;5009732;28;20060;-59
2023/05/09 16:14:18;;;;;;;1.75;0.98;;;;;;;;;;5019880;28;19925;-62
2023/05/09 16:17:20;;;;;;;3.25;1.02;;;;;;;;;;4999859;28;20061;-60
2023/05/09 16:20:13;;;;;;;2.30;1.08;;;;;;;;;;5017551;28;20606;-63
2023/05/09 16:23:17;;;;;;;3.05;1.20;;;;;;;;;;5003396;28;20537;-57
2023/05/09 16:26:16;;;;;;;2.38;1.20;;;;;;;;;;4997911;28;20041;-62
2023/05/09 16:29:21;;;;;;;2.70;1.23;;;;;;;;;;5008285;28;20523;-60
2023/05/09 16:32:25;;;;;;;2.00;1.15;;;;;;;;;;4999372;28;21304;-56
2023/05/09 16:35:22;;;;;;;2.58;1.25;;;;;;;;;;4983690;28;20037;-63
2023/05/09 16:38:21;;;;;;;2.70;1.10;;;;;;;;;;4989493;28;20049;-64
2023/05/09 16:41:29;;;;;;;2.25;1.10;;;;;;;;;;5000676;28;20056;-58
2023/05/09 16:44:20;;;;;;;1.98;1.10;;;;;;;;;;4995510;28;20124;-64
2023/05/09 16:47:28;;;;;;;2.88;0.70;;;;;;;;;;4986864;28;20684;-56
2023/05/09 16:50:42;;;;;;;2.15;1.02;;;;;;;;;;5017100;28;20036;-62
2023/05/09 16:53:43;;;;;;;2.15;0.95;;;;;;;;;;5017651;28;20040;-62
2023/05/09 16:56:44;;;;;;;1.50;1.00;;;;;;;;;;5000635;28;20128;-61
2023/05/09 16:59:48;;;;;;;2.55;1.02;;;;;;;;;;5018862;28;20053;-62
2023/05/09 17:02:46;;;;;;;3.60;1.10;;;;;;;;;;5019248;28;20048;-63
2023/05/09 17:05:53;;;;;;;2.15;0.98;;;;;;;;;;5006750;28;20308;-63
2023/05/09 17:08:45;;;;;;;3.17;0.90;;;;;;;;;;5000742;28;20600;-63
2023/05/09 17:11:47;;;;;;;1.98;1.10;;;;;;;;;;4984989;28;20032;-62
2023/05/09 17:15:01;;;;;;;2.13;1.00;;;;;;;;;;5019847;28;20037;-64
2023/05/09 17:18:00;;;;;;;1.95;1.10;;;;;;;;;;5017937;28;20064;-60
2023/05/09 17:21:01;;;;;;;2.40;1.13;;;;;;;;;;4977737;28;20039;-63
2023/05/09 17:24:01;;;;;;;1.35;0.80;;;;;;;;;;5000164;28;20033;-63
2023/05/09 17:26:56;;;;;;;2.40;1.20;;;;;;;;;;4996643;28;20382;-65
2023/05/09 17:29:59;;;;;;;2.45;1.02;;;;;;;;;;5011971;28;20051;-64
2023/05/09 17:33:03;;;;;;;2.00;0.95;;;;;;;;;;5000706;28;20092;-56
2023/05/09 17:36:08;;;;;;;1.67;1.00;;;;;;;;;;5000056;28;20077;-66
2023/05/09 17:39:02;;;;;;;1.75;0.90;;;;;;;;;;5006988;28;20072;-58
2023/05/09 17:41:58;;;;;;;2.03;1.00;;;;;;;;;;5015850;28;20171;-61
2023/05/09 17:44:49;;;;;;;1.75;1.02;;;;;;;;;;5019347;28;20041;-64
2023/05/09 17:47:51;;;;;;;2.40;1.30;;;;;;;;;;4980201;28;20053;-67
2023/05/09 17:50:55;;;;;;;1.58;0.88;;;;;;;;;;5001076;28;20037;-66
2023/05/09 17:53:51;;;;;;;1.33;0.80;;;;;;;;;;5013422;28;20048;-60
2023/05/09 17:57:00;;;;;;;2.22;1.10;;;;;;;;;;5015607;28;20045;-66
2023/05/09 18:00:06;;;;;;;1.48;1.00;;;;;;;;;;5010230;28;20037;-63
2023/05/09 18:03:09;;;;;;;3.20;1.05;;;;;;;;;;5005413;28;20522;-61
2023/05/09 18:06:20;;;;;;;1.80;1.10;;;;;;;;;;5017098;28;20029;-67
2023/05/09 18:09:14;;;;;;;2.00;1.00;;;;;;;;;;4999592;28;20030;-67
2023/05/09 18:12:16;;;;;;;2.78;0.95;;;;;;;;;;4978529;28;20347;-62
2023/05/09 18:15:19;;;;;;;1.83;1.13;;;;;;;;;;4983447;28;20429;-58
2023/05/09 18:18:31;;;;;;;1.98;0.88;;;;;;;;;;4991022;28;20067;-57
2023/05/09 18:21:31;;;;;;;1.95;1.30;;;;;;;;;;5033142;28;20478;-61
2023/05/09 18:24:39;;;;;;;2.17;1.10;;;;;;;;;;4967118;28;20408;-57
2023/05/09 18:28:02;;;;;;;1.45;1.00;;;;;;;;;;5008836;28;20030;-63
2023/05/09 18:31:19;;;;;;;2.40;1.20;;;;;;;;;;4988837;28;20125;-57
2023/05/09 18:34:29;;;;;;;1.52;0.85;;;;;;;;;;4999300;28;20080;-62
2023/05/09 18:37:32;;;;;;;2.15;1.10;;;;;;;;;;5011292;28;20080;-62
2023/05/09 18:40:38;;;;;;;1.77;1.20;;;;;;;;;;4981160;28;20083;-64
2023/05/09 18:43:44;;;;;;;2.97;1.08;;;;;;;;;;4969545;28;20034;-58
2023/05/09 18:46:56;;;;;;;2.60;1.13;;;;;;;;;;4974045;28;20133;-64
2023/05/09 18:49:53;;;;;;;1.95;1.00;;;;;;;;;;4981798;28;20030;-64
2023/05/09 18:52:54;;;;;;;1.58;0.90;;;;;;;;;;4988891;28;20031;-62
2023/05/09 18:55:50;;;;;;;1.70;1.00;;;;;;;;;;4985999;28;20038;-60
2023/05/09 18:58:42;;;;;;;2.53;1.00;;;;;;;;;;4996959;28;20149;-62
2023/05/09 19:01:36;;;;;;;2.13;1.00;;;;;;;;;;4996362;28;20033;-57
2023/05/09 19:04:31;;;;;;;1.50;1.00;;;;;;;;;;4996081;28;20041;-63
2023/05/09 19:07:22;;;;;;;3.35;1.15;;;;;;;;;;4958117;28;20057;-65
2023/05/09 19:10:22;;;;;;;2.15;1.00;;;;;;;;;;4968156;28;20042;-56
2023/05/09 19:13:21;;;;;;;1.90;1.00;;;;;;;;;;4984879;28;20065;-58
2023/05/09 19:19:28;;;;;;;1.90;1.10;;;;;;;;;;4968772;28;20085;-61
2023/05/09 19:22:23;;;;;;;1.92;1.10;;;;;;;;;;4971266;28;20029;-63
2023/05/09 19:25:20;;;;;;;2.33;1.27;;;;;;;;;;4966539;28;20045;-61
2023/05/09 19:28:38;;;;;;;2.70;1.25;;;;;;;;;;5001158;28;20052;-57
2023/05/09 19:31:30;;;;;;;1.95;1.10;;;;;;;;;;4968626;28;20041;-58